Time;durP1;ratioP1;P1;durP2;ratioP2;P2;SDS_P1;SDS_P2;PMS_P1;PMS_P2;Temp;Humidity;BMP_temperature;BMP_pressure;BME280_temperature;BME280_humidity;BME280_pressure;Samples;Min_cycle;Max_cycle;Signal;HPM_P1;HPM_P2
2023/01/23 00:00:36;;;;;;;55.90;25.95;;;2.10;99.90;;;;;;4997823;28;20065;-93
2023/01/23 00:03:02;;;;;;;44.28;22.25;;;2.00;99.90;;;;;;5008364;28;20025;-95
2023/01/23 00:05:28;;;;;;;49.33;23.38;;;2.00;99.90;;;;;;5007534;28;20036;-93
2023/01/23 00:07:53;;;;;;;62.95;26.35;;;2.00;99.90;;;;;;5008460;28;20044;-93
2023/01/23 00:10:19;;;;;;;57.80;27.77;;;2.00;99.90;;;;;;5006079;28;20021;-96
2023/01/23 00:12:47;;;;;;;60.78;26.52;;;2.00;99.90;;;;;;5005062;28;20113;-94
2023/01/23 00:15:14;;;;;;;57.22;27.55;;;2.00;99.90;;;;;;5010284;28;20032;-93
2023/01/23 00:17:40;;;;;;;63.78;27.40;;;2.00;99.90;;;;;;5005228;28;20479;-94
2023/01/23 00:20:10;;;;;;;60.05;28.30;;;2.00;99.90;;;;;;4999554;28;20072;-95
2023/01/23 00:22:36;;;;;;;59.78;26.67;;;2.00;99.90;;;;;;5007211;28;20100;-93
2023/01/23 00:25:05;;;;;;;53.95;26.83;;;2.00;99.90;;;;;;5009635;28;20495;-93
2023/01/23 00:27:32;;;;;;;46.72;22.02;;;2.00;99.90;;;;;;5006719;28;20036;-92
2023/01/23 00:29:58;;;;;;;53.83;25.33;;;1.90;99.90;;;;;;5008370;28;20088;-95
2023/01/23 00:32:24;;;;;;;57.58;27.30;;;2.00;99.90;;;;;;5004846;28;20030;-94
2023/01/23 00:34:50;;;;;;;57.40;26.35;;;2.00;99.90;;;;;;5007533;28;20018;-94
2023/01/23 00:37:16;;;;;;;59.20;24.48;;;2.00;99.90;;;;;;5006108;28;20030;-93
2023/01/23 00:39:42;;;;;;;65.20;27.13;;;2.00;99.90;;;;;;5009728;28;20072;-94
2023/01/23 00:42:08;;;;;;;48.22;25.30;;;2.00;99.90;;;;;;5007343;28;20030;-95
2023/01/23 00:44:33;;;;;;;64.28;27.17;;;2.00;99.90;;;;;;5007175;28;20022;-94
2023/01/23 00:46:59;;;;;;;47.38;23.05;;;2.10;99.90;;;;;;5004381;28;20389;-94
2023/01/23 00:49:25;;;;;;;58.92;26.35;;;2.00;99.90;;;;;;5014894;28;20018;-94
2023/01/23 00:51:51;;;;;;;49.90;24.35;;;2.10;99.90;;;;;;5022717;28;20388;-95
2023/01/23 00:54:20;;;;;;;56.05;25.05;;;2.10;99.90;;;;;;5007271;28;20089;-94
2023/01/23 00:56:46;;;;;;;55.72;26.48;;;2.10;99.90;;;;;;5007977;28;20026;-94
2023/01/23 00:59:14;;;;;;;56.00;26.42;;;2.10;99.90;;;;;;5009596;28;20494;-94
2023/01/23 01:01:40;;;;;;;48.80;23.88;;;2.10;99.90;;;;;;5008139;28;20037;-94
2023/01/23 01:04:06;;;;;;;56.28;26.05;;;2.10;99.90;;;;;;5007159;28;20029;-93
2023/01/23 01:06:32;;;;;;;54.78;25.63;;;2.20;99.90;;;;;;5007624;28;20028;-94
2023/01/23 01:08:58;;;;;;;51.58;25.13;;;2.20;99.90;;;;;;5011692;28;20029;-94
2023/01/23 01:11:25;;;;;;;63.83;28.95;;;2.20;99.90;;;;;;5010808;28;20499;-93
2023/01/23 01:13:52;;;;;;;58.92;27.67;;;2.20;99.90;;;;;;5015592;28;20026;-95
2023/01/23 01:16:18;;;;;;;61.47;26.92;;;2.20;99.90;;;;;;4989027;28;20101;-96
2023/01/23 01:18:44;;;;;;;58.53;28.08;;;2.20;99.90;;;;;;5009467;28;20072;-95
2023/01/23 01:21:13;;;;;;;51.65;25.48;;;2.20;99.90;;;;;;5008641;28;20030;-96
2023/01/23 01:23:41;;;;;;;53.55;25.70;;;2.20;99.90;;;;;;5005891;28;20022;-94
2023/01/23 01:26:08;;;;;;;56.72;26.50;;;2.20;99.90;;;;;;5008032;28;20036;-94
2023/01/23 01:28:35;;;;;;;58.20;27.10;;;2.20;99.90;;;;;;5009513;28;20022;-94
2023/01/23 01:31:14;;;;;;;56.17;26.30;;;2.10;99.90;;;;;;5007045;28;20088;-95
2023/01/23 01:33:41;;;;;;;59.05;26.20;;;2.20;99.90;;;;;;5004603;28;20045;-94
2023/01/23 01:36:12;;;;;;;51.10;23.42;;;2.20;99.90;;;;;;5006581;28;20030;-95
2023/01/23 01:38:40;;;;;;;48.53;22.80;;;2.20;99.90;;;;;;5008870;28;20022;-95
2023/01/23 01:41:07;;;;;;;50.60;24.65;;;2.20;99.90;;;;;;5006622;28;20038;-94
2023/01/23 01:43:34;;;;;;;56.20;26.52;;;2.20;99.90;;;;;;5009279;28;20472;-95
2023/01/23 01:46:08;;;;;;;52.70;25.77;;;2.30;99.90;;;;;;5007539;28;20022;-95
2023/01/23 01:48:48;;;;;;;50.13;23.90;;;2.30;99.90;;;;;;4989714;28;20041;-95
2023/01/23 01:51:27;;;;;;;47.92;24.98;;;2.30;99.90;;;;;;4985464;28;20088;-95
2023/01/23 01:54:05;;;;;;;40.05;19.60;;;2.30;99.90;;;;;;4986338;28;20030;-93
2023/01/23 01:56:36;;;;;;;51.63;23.92;;;2.30;99.90;;;;;;4984011;28;20022;-95
2023/01/23 01:59:04;;;;;;;46.65;21.35;;;2.30;99.90;;;;;;4982653;28;20473;-95
2023/01/23 02:01:30;;;;;;;46.42;21.67;;;2.30;99.90;;;;;;4985773;28;20034;-94
2023/01/23 02:03:56;;;;;;;47.92;23.25;;;2.30;99.90;;;;;;4986163;28;20023;-94
2023/01/23 02:06:23;;;;;;;46.83;22.20;;;2.30;99.90;;;;;;4986713;28;20038;-95
2023/01/23 02:09:04;;;;;;;49.65;23.00;;;2.30;99.90;;;;;;4988130;28;20029;-95
2023/01/23 02:11:30;;;;;;;46.42;22.52;;;2.30;99.90;;;;;;4986127;28;20472;-95
2023/01/23 02:13:56;;;;;;;50.03;23.27;;;2.30;99.90;;;;;;4982869;28;20026;-95
2023/01/23 02:16:34;;;;;;;50.97;24.05;;;2.30;99.90;;;;;;4982645;28;20033;-94
2023/01/23 02:19:06;;;;;;;52.55;23.33;;;2.30;99.90;;;;;;4992210;28;20040;-94
2023/01/23 02:21:34;;;;;;;49.63;22.63;;;2.20;99.90;;;;;;4981777;28;20496;-95
2023/01/23 02:24:07;;;;;;;46.40;22.48;;;2.30;99.90;;;;;;4996242;28;20020;-94
2023/01/23 02:26:44;;;;;;;51.45;22.98;;;2.20;99.90;;;;;;4995774;28;20029;-94
2023/01/23 02:29:11;;;;;;;47.00;22.58;;;2.20;99.90;;;;;;5008425;28;20030;-94
2023/01/23 02:31:37;;;;;;;47.65;21.85;;;2.20;99.90;;;;;;4999871;28;20085;-94
2023/01/23 02:34:03;;;;;;;45.72;21.80;;;2.20;99.90;;;;;;4986166;28;20468;-94
2023/01/23 02:36:33;;;;;;;46.08;23.10;;;2.20;99.90;;;;;;4990500;28;20021;-94
2023/01/23 02:39:12;;;;;;;48.70;23.17;;;2.10;99.90;;;;;;4991090;28;20092;-95
2023/01/23 02:41:50;;;;;;;45.88;22.02;;;2.10;99.90;;;;;;4989569;28;20026;-96
2023/01/23 02:44:26;;;;;;;52.53;24.90;;;2.10;99.90;;;;;;4989356;28;20027;-94
2023/01/23 02:46:58;;;;;;;57.38;23.95;;;2.10;99.90;;;;;;4990282;28;20053;-94
2023/01/23 02:49:24;;;;;;;50.28;24.90;;;2.10;99.90;;;;;;5007571;28;20057;-95
2023/01/23 02:51:52;;;;;;;50.33;23.35;;;2.10;99.90;;;;;;5005091;28;20021;-94
2023/01/23 02:54:18;;;;;;;47.25;22.80;;;2.00;99.90;;;;;;5006740;28;20026;-95
2023/01/23 02:56:43;;;;;;;55.30;23.70;;;2.10;99.90;;;;;;5005466;28;20116;-93
2023/01/23 03:01:54;;;;;;;53.20;25.20;;;2.00;99.90;;;;;;5018031;28;20507;-94
2023/01/23 03:04:20;;;;;;;49.50;24.13;;;2.00;99.90;;;;;;4996782;28;20084;-94
2023/01/23 03:06:46;;;;;;;46.00;21.88;;;2.00;99.90;;;;;;4995676;28;20034;-94
2023/01/23 03:09:15;;;;;;;49.45;21.77;;;2.00;99.90;;;;;;4996557;28;20557;-93
2023/01/23 03:11:42;;;;;;;43.72;22.08;;;2.00;99.90;;;;;;4996461;28;20497;-93
2023/01/23 03:14:14;;;;;;;50.47;23.65;;;2.00;99.90;;;;;;4997012;28;20037;-93
2023/01/23 03:16:41;;;;;;;50.20;23.33;;;2.00;99.90;;;;;;4997049;28;20026;-94
2023/01/23 03:19:09;;;;;;;54.08;24.48;;;2.00;99.90;;;;;;4996385;28;20116;-93
2023/01/23 03:21:38;;;;;;;54.17;24.13;;;2.00;99.90;;;;;;4996499;28;20514;-92
2023/01/23 03:24:06;;;;;;;55.05;23.42;;;1.90;99.90;;;;;;4996072;28;20061;-92
2023/01/23 03:26:32;;;;;;;47.55;23.10;;;1.90;99.90;;;;;;4996333;28;20022;-93
2023/01/23 03:31:42;;;;;;;40.40;20.10;;;1.90;99.90;;;;;;5014172;28;20061;-95
2023/01/23 03:34:08;;;;;;;49.55;22.58;;;1.90;99.90;;;;;;4996802;28;20061;-94
2023/01/23 03:36:36;;;;;;;46.85;22.35;;;1.90;99.90;;;;;;4995734;28;20026;-93
2023/01/23 03:41:50;;;;;;;36.80;19.10;;;1.90;99.90;;;;;;5013681;28;20088;-93
2023/01/23 03:44:17;;;;;;;51.92;24.08;;;1.90;99.90;;;;;;4995879;28;20034;-93
2023/01/23 03:46:44;;;;;;;37.42;18.90;;;1.90;99.90;;;;;;4995983;28;20046;-93
2023/01/23 03:49:10;;;;;;;44.03;20.80;;;1.90;99.90;;;;;;4996133;28;20022;-92
2023/01/23 03:51:35;;;;;;;38.47;20.17;;;1.90;99.90;;;;;;4995765;28;20513;-93
2023/01/23 03:54:01;;;;;;;35.83;17.50;;;1.90;99.90;;;;;;4996347;28;20623;-93
2023/01/23 03:56:27;;;;;;;41.83;20.45;;;1.90;99.90;;;;;;4996376;28;20427;-93
2023/01/23 03:58:53;;;;;;;39.00;19.58;;;1.90;99.90;;;;;;5001750;28;20033;-93
2023/01/23 04:01:18;;;;;;;32.50;16.75;;;1.90;99.90;;;;;;5006977;28;20567;-94
2023/01/23 04:03:44;;;;;;;41.25;19.63;;;1.80;99.90;;;;;;5006319;28;20036;-96
2023/01/23 04:06:10;;;;;;;46.83;22.13;;;1.80;99.90;;;;;;5007623;28;20046;-93
2023/01/23 04:08:35;;;;;;;45.13;21.70;;;1.80;99.90;;;;;;5011675;28;20026;-93
2023/01/23 04:11:03;;;;;;;36.00;18.63;;;1.70;99.90;;;;;;5004286;28;20061;-95
2023/01/23 04:13:29;;;;;;;45.13;21.67;;;1.70;99.90;;;;;;5001604;28;20018;-94
2023/01/23 04:15:55;;;;;;;48.00;22.05;;;1.70;99.90;;;;;;5000778;28;20036;-94
2023/01/23 04:18:21;;;;;;;40.85;20.05;;;1.60;99.90;;;;;;5001065;28;20029;-94
2023/01/23 04:20:47;;;;;;;48.13;21.98;;;1.60;99.90;;;;;;5004311;28;20040;-94
2023/01/23 04:23:12;;;;;;;35.38;17.35;;;1.60;99.90;;;;;;5007748;28;20029;-94
2023/01/23 04:25:38;;;;;;;42.60;19.75;;;1.60;99.90;;;;;;5004289;28;20094;-95
2023/01/23 04:28:04;;;;;;;47.75;23.05;;;1.70;99.90;;;;;;4999385;28;20033;-95
2023/01/23 04:30:29;;;;;;;47.63;21.73;;;1.60;99.90;;;;;;4999390;28;20029;-96
2023/01/23 04:32:55;;;;;;;52.47;22.15;;;1.60;99.90;;;;;;4999152;28;20045;-94
2023/01/23 04:35:21;;;;;;;42.20;20.20;;;1.60;99.90;;;;;;4999315;28;20022;-93
2023/01/23 04:37:46;;;;;;;46.10;21.10;;;1.60;99.90;;;;;;4999317;28;20456;-94
2023/01/23 04:40:12;;;;;;;34.60;16.35;;;1.60;99.90;;;;;;4999488;28;20022;-95
2023/01/23 04:42:38;;;;;;;42.30;21.55;;;1.60;99.90;;;;;;4999132;28;20392;-94
2023/01/23 04:45:04;;;;;;;45.70;20.70;;;1.60;99.90;;;;;;4999031;28;20398;-93
2023/01/23 04:47:30;;;;;;;49.83;23.15;;;1.70;99.90;;;;;;4996521;28;20061;-94
2023/01/23 04:49:55;;;;;;;48.72;23.80;;;1.60;99.90;;;;;;4998613;28;20026;-92
2023/01/23 04:52:21;;;;;;;48.22;22.98;;;1.60;99.90;;;;;;4998730;28;20029;-95
2023/01/23 04:54:49;;;;;;;47.58;23.80;;;1.60;99.90;;;;;;4999188;28;20052;-94
2023/01/23 04:57:14;;;;;;;52.45;24.13;;;1.60;99.90;;;;;;4997969;28;20045;-94
2023/01/23 04:59:40;;;;;;;45.63;20.67;;;1.60;99.90;;;;;;4998391;28;20026;-95
2023/01/23 05:02:06;;;;;;;44.55;22.63;;;1.60;99.90;;;;;;4998834;28;20096;-95
2023/01/23 05:04:31;;;;;;;46.22;23.63;;;1.60;99.90;;;;;;4998606;28;20375;-94
2023/01/23 05:06:57;;;;;;;50.60;24.10;;;1.60;99.90;;;;;;4998748;28;20121;-94
2023/01/23 05:09:23;;;;;;;47.72;22.38;;;1.60;99.90;;;;;;4998812;28;20022;-92
2023/01/23 05:11:48;;;;;;;52.53;22.45;;;1.60;99.90;;;;;;4998812;28;20037;-94
2023/01/23 05:14:14;;;;;;;52.33;24.15;;;1.60;99.90;;;;;;4999240;28;20068;-93
2023/01/23 05:16:40;;;;;;;49.65;23.58;;;1.60;99.90;;;;;;4999558;28;20026;-94
2023/01/23 05:19:05;;;;;;;51.78;23.00;;;1.60;99.90;;;;;;5008411;28;20558;-93
2023/01/23 05:21:31;;;;;;;54.05;24.00;;;1.60;99.90;;;;;;5004493;28;20034;-95
2023/01/23 05:23:57;;;;;;;58.13;25.92;;;1.60;99.90;;;;;;4998510;28;20032;-95
2023/01/23 05:26:23;;;;;;;54.85;26.95;;;1.60;99.90;;;;;;4998187;28;20052;-95
2023/01/23 05:28:48;;;;;;;53.05;24.77;;;1.60;99.90;;;;;;4998441;28;20558;-95
2023/01/23 05:31:14;;;;;;;44.80;22.67;;;1.60;99.90;;;;;;5015584;28;20483;-94
2023/01/23 05:33:40;;;;;;;50.25;24.15;;;1.60;99.90;;;;;;4998372;28;20388;-96
2023/01/23 05:36:06;;;;;;;46.13;23.27;;;1.60;99.90;;;;;;4998386;28;20033;-94
2023/01/23 05:38:32;;;;;;;49.15;22.25;;;1.60;99.90;;;;;;4998254;28;20041;-95
2023/01/23 05:40:57;;;;;;;55.90;24.98;;;1.60;99.90;;;;;;4998532;28;20515;-95
2023/01/23 05:43:23;;;;;;;56.47;24.88;;;1.60;99.90;;;;;;5002127;28;20591;-95
2023/01/23 05:45:49;;;;;;;60.75;24.85;;;1.60;99.90;;;;;;5017787;28;20022;-94
2023/01/23 05:48:14;;;;;;;57.28;25.17;;;1.60;99.90;;;;;;5011778;28;20050;-94
2023/01/23 05:50:40;;;;;;;60.38;28.48;;;1.60;99.90;;;;;;4998064;28;20018;-94
2023/01/23 05:53:06;;;;;;;62.40;28.33;;;1.70;99.90;;;;;;4997881;28;20037;-95
2023/01/23 05:55:32;;;;;;;56.53;27.27;;;1.60;99.90;;;;;;4997571;28;20017;-95
2023/01/23 05:57:57;;;;;;;57.80;27.15;;;1.70;99.90;;;;;;4997705;28;20129;-94
2023/01/23 06:00:23;;;;;;;55.10;26.75;;;1.70;99.90;;;;;;4997728;28;20500;-96
2023/01/23 06:02:49;;;;;;;57.38;27.60;;;1.70;99.90;;;;;;4998240;28;20034;-93
2023/01/23 06:05:15;;;;;;;65.72;28.13;;;1.70;99.90;;;;;;4998003;28;20025;-96
2023/01/23 06:07:40;;;;;;;60.65;28.58;;;1.70;99.90;;;;;;4998100;28;20506;-94
2023/01/23 06:10:07;;;;;;;58.88;26.27;;;1.70;99.90;;;;;;4996271;28;20026;-94
2023/01/23 06:12:32;;;;;;;58.88;26.65;;;1.70;99.90;;;;;;4996769;28;20088;-93
2023/01/23 06:14:58;;;;;;;57.42;26.00;;;1.70;99.90;;;;;;4997710;28;20029;-95
2023/01/23 06:17:24;;;;;;;43.53;21.98;;;1.70;99.90;;;;;;4997875;28;20064;-95
2023/01/23 06:19:50;;;;;;;58.65;26.73;;;1.70;99.90;;;;;;4998005;28;20022;-94
2023/01/23 06:22:15;;;;;;;55.65;25.10;;;1.80;99.90;;;;;;4997069;28;20037;-95
2023/01/23 06:24:41;;;;;;;56.40;25.98;;;1.80;99.90;;;;;;4997454;28;20026;-95
2023/01/23 06:27:07;;;;;;;58.90;26.85;;;1.80;99.90;;;;;;4996718;28;20033;-94
2023/01/23 06:29:35;;;;;;;52.20;25.95;;;1.80;99.90;;;;;;4997058;28;20022;-95
2023/01/23 06:32:01;;;;;;;55.72;25.48;;;1.80;99.90;;;;;;4997366;28;20033;-96
2023/01/23 06:34:27;;;;;;;58.08;23.80;;;1.80;99.90;;;;;;4997785;28;20030;-95
2023/01/23 06:36:52;;;;;;;53.40;26.73;;;1.80;99.90;;;;;;4997433;28;20054;-96
2023/01/23 06:39:18;;;;;;;49.30;23.85;;;1.80;99.90;;;;;;4998801;28;20072;-94
2023/01/23 06:41:44;;;;;;;50.20;24.13;;;1.80;99.90;;;;;;4997744;28;20072;-94
2023/01/23 06:44:12;;;;;;;56.42;25.80;;;1.80;99.90;;;;;;4998701;28;20037;-94
2023/01/23 06:46:38;;;;;;;59.25;26.17;;;1.80;99.90;;;;;;5006256;28;20053;-95
2023/01/23 06:49:04;;;;;;;49.13;24.67;;;1.80;99.90;;;;;;5005134;28;20049;-94
2023/01/23 06:51:31;;;;;;;58.10;25.27;;;1.90;99.90;;;;;;5004640;28;20093;-96
2023/01/23 06:53:57;;;;;;;54.38;26.05;;;1.90;99.90;;;;;;5006489;28;20025;-95
2023/01/23 06:56:23;;;;;;;56.78;26.55;;;1.80;99.90;;;;;;5005219;28;20099;-94
2023/01/23 06:58:49;;;;;;;58.45;26.27;;;1.90;99.90;;;;;;5001609;28;20033;-93
2023/01/23 07:01:17;;;;;;;57.92;26.25;;;1.90;99.90;;;;;;4999415;28;20042;-93
2023/01/23 07:03:46;;;;;;;56.17;27.05;;;1.90;99.90;;;;;;5007505;28;20403;-94
2023/01/23 07:06:13;;;;;;;50.92;25.60;;;1.90;99.90;;;;;;5001677;28;20028;-93
2023/01/23 07:08:40;;;;;;;44.50;20.80;;;1.90;99.90;;;;;;5004166;28;20018;-94
2023/01/23 07:11:07;;;;;;;53.70;26.13;;;1.90;99.90;;;;;;5007495;28;20026;-94
2023/01/23 07:13:33;;;;;;;50.13;24.73;;;1.90;99.90;;;;;;5004167;28;20061;-94
2023/01/23 07:15:59;;;;;;;53.47;27.08;;;1.90;99.90;;;;;;5003794;28;20041;-93
2023/01/23 07:18:29;;;;;;;54.53;24.98;;;1.90;99.90;;;;;;5010763;28;20443;-93
2023/01/23 07:20:55;;;;;;;57.00;26.83;;;1.90;99.90;;;;;;5000586;28;20037;-94
2023/01/23 07:23:22;;;;;;;59.08;27.13;;;1.90;99.90;;;;;;5016271;28;20022;-94
2023/01/23 07:25:48;;;;;;;54.45;27.42;;;1.80;99.90;;;;;;5009825;28;20030;-95
2023/01/23 07:28:14;;;;;;;50.25;22.48;;;1.80;99.90;;;;;;5004664;28;20033;-94
2023/01/23 07:30:40;;;;;;;59.85;27.15;;;1.80;99.90;;;;;;5006621;28;20073;-95
2023/01/23 07:35:48;;;;;;;51.35;25.35;;;1.80;99.90;;;;;;5103594;23;20082;-94
2023/01/23 07:38:14;;;;;;;56.50;25.83;;;1.80;99.90;;;;;;5054573;28;20021;-94
2023/01/23 07:40:41;;;;;;;57.65;28.05;;;1.80;99.90;;;;;;5045390;28;20024;-96
2023/01/23 07:43:07;;;;;;;64.85;30.15;;;1.80;99.90;;;;;;5051353;28;20029;-94
2023/01/23 07:45:33;;;;;;;61.03;27.98;;;1.80;99.90;;;;;;5060683;28;20528;-93
2023/01/23 07:47:58;;;;;;;63.25;28.17;;;1.80;99.90;;;;;;5068121;28;20086;-93
2023/01/23 07:50:24;;;;;;;61.17;28.77;;;1.80;99.90;;;;;;5061170;28;20569;-94
2023/01/23 07:52:50;;;;;;;60.63;28.08;;;1.80;99.90;;;;;;5071526;28;20028;-92
2023/01/23 07:55:15;;;;;;;51.38;23.25;;;1.80;99.90;;;;;;5076028;28;20035;-94
2023/01/23 07:57:41;;;;;;;61.72;30.13;;;1.90;99.90;;;;;;5069665;28;20486;-94
2023/01/23 08:00:09;;;;;;;59.47;29.15;;;1.90;99.90;;;;;;5059825;28;20452;-94
2023/01/23 08:02:36;;;;;;;63.55;28.02;;;2.00;99.90;;;;;;5059867;28;20029;-95
2023/01/23 08:05:02;;;;;;;59.03;28.58;;;2.00;99.90;;;;;;5044694;28;20025;-94
2023/01/23 08:07:28;;;;;;;54.13;26.60;;;2.00;99.90;;;;;;5039922;28;20028;-94
2023/01/23 08:09:54;;;;;;;56.08;27.23;;;2.00;99.90;;;;;;5051826;28;20028;-94
2023/01/23 08:12:20;;;;;;;60.20;27.95;;;2.10;99.90;;;;;;5052277;28;20033;-92
2023/01/23 08:14:46;;;;;;;57.70;25.38;;;2.10;99.90;;;;;;5048168;28;20056;-96
2023/01/23 08:17:12;;;;;;;54.67;26.73;;;2.10;99.90;;;;;;5042066;28;20025;-95
2023/01/23 08:19:38;;;;;;;59.38;27.38;;;2.10;99.90;;;;;;5038436;28;20510;-94
2023/01/23 08:22:03;;;;;;;50.17;25.73;;;2.00;99.90;;;;;;5045694;28;20040;-95
2023/01/23 08:24:29;;;;;;;54.92;26.67;;;2.00;99.90;;;;;;5044736;28;20047;-95
2023/01/23 08:26:55;;;;;;;58.20;28.60;;;2.00;99.90;;;;;;5042102;28;20029;-95
2023/01/23 08:29:21;;;;;;;52.58;26.52;;;2.00;99.90;;;;;;5041467;28;20454;-95
2023/01/23 08:31:47;;;;;;;43.88;21.70;;;2.00;99.90;;;;;;5022609;28;20029;-95
2023/01/23 08:34:13;;;;;;;56.72;26.58;;;2.00;99.90;;;;;;5020271;28;20072;-93
2023/01/23 08:36:40;;;;;;;47.63;23.50;;;2.00;99.90;;;;;;5019790;28;20479;-95
2023/01/23 08:39:06;;;;;;;53.47;25.80;;;2.00;99.90;;;;;;5020810;28;20116;-93
2023/01/23 08:41:31;;;;;;;55.95;26.90;;;2.00;99.90;;;;;;5022196;28;20057;-95
2023/01/23 08:44:00;;;;;;;44.03;22.20;;;1.90;99.90;;;;;;5025822;28;20097;-94
2023/01/23 08:46:28;;;;;;;56.78;25.70;;;2.00;99.90;;;;;;5028088;28;20037;-95
2023/01/23 08:48:55;;;;;;;47.17;23.40;;;2.00;99.90;;;;;;5028993;28;20024;-94
2023/01/23 08:51:24;;;;;;;47.15;24.88;;;1.90;99.90;;;;;;5061865;28;20084;-94
2023/01/23 08:54:00;;;;;;;56.55;26.33;;;1.90;99.90;;;;;;5061213;28;20063;-93
2023/01/23 08:56:33;;;;;;;51.17;23.42;;;2.00;99.90;;;;;;5025078;28;20032;-94
2023/01/23 08:59:15;;;;;;;44.90;21.88;;;2.00;99.90;;;;;;5080381;28;20088;-93
2023/01/23 09:02:00;;;;;;;49.95;24.58;;;2.00;99.90;;;;;;5063151;28;20059;-93
2023/01/23 09:04:47;;;;;;;49.97;24.15;;;2.00;99.90;;;;;;5078918;28;20017;-93
2023/01/23 09:07:15;;;;;;;59.67;27.50;;;2.00;99.90;;;;;;5062024;28;20039;-93
2023/01/23 09:09:43;;;;;;;90.55;38.70;;;2.00;99.90;;;;;;5062462;28;20049;-92
2023/01/23 09:12:23;;;;;;;;;;;;;;;;;;;;;
2023/01/23 09:14:56;;;;;;;71.47;31.55;;;2.00;99.90;;;;;;5076401;28;20113;-91
2023/01/23 09:17:24;;;;;;;65.70;32.20;;;2.10;99.90;;;;;;5079732;28;20037;-93
2023/01/23 09:19:59;;;;;;;64.05;31.75;;;2.10;99.90;;;;;;5063041;28;20043;-93
2023/01/23 09:22:51;;;;;;;69.32;31.80;;;2.20;99.90;;;;;;5079088;28;20033;-93
2023/01/23 09:25:59;;;;;;;62.10;29.23;;;2.30;99.90;;;;;;5060759;28;20009;-93
2023/01/23 09:29:06;;;;;;;64.13;30.55;;;2.40;99.90;;;;;;5063224;28;20058;-92
2023/01/23 09:31:39;;;;;;;62.55;28.80;;;2.50;99.90;;;;;;5063145;28;20049;-92
2023/01/23 09:34:56;;;;;;;;;;;2.70;99.90;;;;;;5076098;28;20039;-93
2023/01/23 09:37:58;;;;;;;59.08;26.48;;;2.90;99.90;;;;;;5079750;28;19897;-92
2023/01/23 09:43:59;;;;;;;57.00;26.48;;;3.10;99.90;;;;;;4979712;28;20042;-94
2023/01/23 09:47:19;;;;;;;52.42;25.40;;;3.00;99.90;;;;;;4967243;28;20035;-93
2023/01/23 09:50:23;;;;;;;54.65;26.42;;;3.00;99.90;;;;;;4964615;28;20043;-94
2023/01/23 09:53:22;;;;;;;55.25;25.75;;;3.00;99.90;;;;;;4961227;28;20024;-93
2023/01/23 09:56:29;;;;;;;56.47;25.80;;;3.00;99.90;;;;;;4948538;28;20020;-96
2023/01/23 09:59:37;;;;;;;54.85;27.05;;;3.20;99.90;;;;;;4961369;28;20036;-93
2023/01/23 10:02:27;;;;;;;48.58;24.42;;;3.40;99.90;;;;;;5138206;23;20351;-92
2023/01/23 10:08:34;;;;;;;57.28;27.92;;;3.80;99.90;;;;;;5032481;28;20019;-94
2023/01/23 10:11:30;;;;;;;49.92;24.33;;;4.10;99.90;;;;;;4981397;29;20023;-93
2023/01/23 10:14:37;;;;;;;44.80;23.63;;;4.30;99.90;;;;;;4965113;29;20026;-93
2023/01/23 10:20:29;;;;;;;46.30;23.55;;;4.60;99.90;;;;;;522398;26;20306;-92
2023/01/23 10:23:26;;;;;;;42.33;22.23;;;4.70;99.90;;;;;;5018722;28;20082;-92
2023/01/23 10:25:55;;;;;;;43.08;22.10;;;4.80;99.90;;;;;;5020206;28;20100;-96
2023/01/23 10:28:38;;;;;;;48.60;23.38;;;4.70;99.90;;;;;;5001127;28;20014;-94
2023/01/23 10:31:28;;;;;;;45.25;23.83;;;4.70;99.90;;;;;;5003923;28;20010;-95
2023/01/23 10:34:07;;;;;;;44.83;24.05;;;4.70;99.90;;;;;;4996361;28;20003;-93
2023/01/23 10:37:09;;;;;;;43.08;23.20;;;4.80;99.90;;;;;;5003910;28;20070;-93
2023/01/23 10:41:12;;;;;;;45.25;22.35;;;5.20;99.90;;;;;;5003679;28;20019;-94
2023/01/23 10:43:03;;;;;;;46.13;22.52;;;5.70;99.90;;;;;;5019503;28;20022;-95
2023/01/23 10:46:27;;;;;;;41.40;21.52;;;6.20;99.90;;;;;;5006128;28;20037;-94
2023/01/23 10:49:20;;;;;;;38.17;20.35;;;6.70;99.90;;;;;;5003221;28;19999;-94
2023/01/23 10:52:32;;;;;;;38.35;19.77;;;7.10;99.90;;;;;;5018427;28;20006;-95
2023/01/23 10:54:58;;;;;;;40.38;20.40;;;7.60;99.90;;;;;;5003095;28;19998;-93
2023/01/23 10:57:31;;;;;;;37.75;19.38;;;7.90;99.90;;;;;;5019740;28;20007;-94
2023/01/23 11:00:03;;;;;;;36.53;19.88;;;8.30;99.90;;;;;;5018584;28;20022;-93
2023/01/23 11:02:53;;;;;;;36.80;20.20;;;8.50;99.90;;;;;;5019592;28;20018;-95
2023/01/23 11:05:40;;;;;;;35.92;19.65;;;8.80;99.90;;;;;;5012459;28;20011;-94
2023/01/23 11:08:48;;;;;;;37.35;21.02;;;9.00;99.90;;;;;;5015978;28;20014;-94
2023/01/23 11:11:15;;;;;;;39.28;20.90;;;9.20;99.90;;;;;;4983425;28;20011;-94
2023/01/23 11:13:44;;;;;;;37.08;20.30;;;9.40;99.90;;;;;;5004353;28;20022;-93
2023/01/23 11:16:23;;;;;;;39.90;21.60;;;9.60;99.90;;;;;;5018594;28;20025;-93
2023/01/23 11:18:54;;;;;;;39.70;21.52;;;9.70;99.90;;;;;;5002482;28;20029;-94
2023/01/23 11:21:29;;;;;;;39.38;21.17;;;9.80;99.90;;;;;;5007752;28;20045;-92
2023/01/23 11:24:32;;;;;;;34.88;20.15;;;9.80;99.90;;;;;;5024043;28;20002;-93
2023/01/23 11:26:59;;;;;;;40.30;21.10;;;9.90;99.90;;;;;;5016676;28;20019;-93
2023/01/23 11:29:29;;;;;;;35.10;20.02;;;10.00;99.90;;;;;;5021057;28;19999;-94
2023/01/23 11:32:10;;;;;;;37.45;21.27;;;10.10;99.90;;;;;;5025904;28;20022;-94
2023/01/23 11:34:39;;;;;;;;;;;10.20;99.90;;;;;;5027829;28;20009;-94
2023/01/23 11:37:13;;;;;;;45.05;21.52;;;10.20;99.90;;;;;;5021148;28;19953;-93
2023/01/23 11:40:11;;;;;;;38.17;20.83;;;10.20;99.90;;;;;;5016270;28;20021;-93
2023/01/23 11:42:40;;;;;;;38.00;21.58;;;10.30;99.90;;;;;;5013290;28;20086;-94
2023/01/23 11:45:32;;;;;;;33.50;19.37;;;10.40;99.90;;;;;;5019753;28;20030;-94
2023/01/23 11:48:16;;;;;;;35.97;19.38;;;10.60;99.90;;;;;;5025389;28;20018;-94
2023/01/23 11:50:50;;;;;;;32.55;18.50;;;10.80;99.90;;;;;;5026308;28;20049;-94
2023/01/23 11:53:27;;;;;;;36.53;18.95;;;10.90;99.90;;;;;;5011136;28;20034;-93
2023/01/23 11:56:12;;;;;;;35.55;18.65;;;11.00;99.90;;;;;;5020020;28;20018;-94
2023/01/23 11:59:07;;;;;;;31.52;17.98;;;11.20;99.90;;;;;;5009925;28;20030;-93
2023/01/23 12:02:12;;;;;;;33.65;18.08;;;11.20;99.90;;;;;;5020614;28;20033;-92
2023/01/23 12:05:01;;;;;;;33.35;18.90;;;11.40;99.60;;;;;;4975321;28;20031;-94
2023/01/23 12:07:33;;;;;;;29.45;16.13;;;11.60;98.30;;;;;;4978468;28;20095;-93
2023/01/23 12:10:23;;;;;;;29.65;18.15;;;11.70;97.50;;;;;;4978209;28;20128;-94
2023/01/23 12:16:21;;;;;;;31.33;18.75;;;12.10;96.00;;;;;;5450936;23;20054;-93
2023/01/23 12:19:09;;;;;;;29.15;16.02;;;12.40;95.20;;;;;;5078618;28;20005;-94
2023/01/23 12:21:50;;;;;;;33.55;17.73;;;12.70;94.40;;;;;;5078158;28;20029;-94
2023/01/23 12:24:42;;;;;;;28.85;17.38;;;12.90;93.30;;;;;;5081609;28;19998;-95
2023/01/23 12:27:33;;;;;;;;;;;13.00;92.60;;;;;;5085434;28;19997;-93
2023/01/23 12:34:11;;;;;;;33.20;19.55;;;13.20;91.30;;;;;;5072940;28;20012;-96
2023/01/23 12:37:07;;;;;;;31.95;17.45;;;13.20;90.80;;;;;;5012194;28;20039;-96
2023/01/23 12:39:33;;;;;;;30.27;18.85;;;13.20;90.50;;;;;;5001168;28;20086;-94
2023/01/23 12:42:47;;;;;;;28.52;16.73;;;13.40;90.50;;;;;;4999408;28;20050;-94
2023/01/23 12:45:31;;;;;;;27.17;17.20;;;13.50;90.00;;;;;;4906880;29;20025;-94
2023/01/23 12:48:35;;;;;;;33.70;18.08;;;13.70;89.30;;;;;;4922880;29;20069;-96
2023/01/23 12:51:36;;;;;;;33.75;18.15;;;13.80;87.70;;;;;;4905010;29;20039;-94
2023/01/23 12:55:02;;;;;;;31.70;17.70;;;13.50;86.90;;;;;;4923544;29;20036;-95
2023/01/23 13:00:35;;;;;;;31.20;18.98;;;12.60;87.60;;;;;;5260000;23;20037;-95
2023/01/23 13:04:08;;;;;;;35.30;19.42;;;12.10;88.10;;;;;;5031337;28;20017;-94
2023/01/23 13:06:56;;;;;;;30.35;16.30;;;11.60;88.80;;;;;;5035929;28;20017;-94
2023/01/23 13:10:19;;;;;;;29.83;17.70;;;11.20;89.50;;;;;;5052804;28;20025;-94
2023/01/23 13:12:48;;;;;;;26.67;16.65;;;11.00;90.30;;;;;;5042452;28;20033;-94
2023/01/23 13:15:37;;;;;;;27.48;16.83;;;11.10;90.80;;;;;;5042362;28;20017;-93
2023/01/23 13:18:23;;;;;;;30.45;17.23;;;11.20;90.80;;;;;;4964241;28;20077;-94
2023/01/23 13:27:48;;;;;;;33.47;17.83;;;10.90;90.80;;;;;;5058722;28;20028;-94
2023/01/23 13:30:38;;;;;;;31.55;17.48;;;10.70;90.90;;;;;;5053907;28;20025;-95
2023/01/23 13:33:49;;;;;;;28.50;16.83;;;10.60;91.10;;;;;;5071622;28;20037;-94
2023/01/23 13:36:38;;;;;;;29.45;17.25;;;10.50;91.30;;;;;;4985772;28;20039;-92
2023/01/23 13:39:15;;;;;;;30.50;17.77;;;10.60;91.50;;;;;;4968730;28;20043;-92
2023/01/23 13:42:09;;;;;;;29.80;17.05;;;11.00;91.60;;;;;;4992022;28;20064;-94
2023/01/23 13:51:38;;;;;;;32.78;16.10;;;12.90;88.60;;;;;;5045767;28;20040;-94
2023/01/23 13:58:03;;;;;;;24.50;14.93;;;13.90;85.00;;;;;;5102744;22;20044;-95